createdAt,value
2023-05-16T00:00:45.289Z,0.0000
2023-05-16T00:04:50.456Z,0.0000
2023-05-16T00:06:51.992Z,0.0000
2023-05-16T00:07:54.079Z,0.0000
2023-05-16T00:08:55.929Z,0.0000
2023-05-16T00:09:56.605Z,0.0000
2023-05-16T00:10:57.199Z,0.0000
2023-05-16T00:11:58.425Z,0.0000
2023-05-16T00:13:00.005Z,0.0000
2023-05-16T00:14:00.356Z,0.0000
2023-05-16T00:15:01.894Z,0.0000
2023-05-16T00:16:01.920Z,0.0000
2023-05-16T00:17:04.000Z,0.0000
2023-05-16T00:18:05.400Z,0.0000
2023-05-16T00:19:06.901Z,0.0000
2023-05-16T00:20:06.456Z,0.0000
2023-05-16T00:21:07.100Z,0.0000
2023-05-16T00:22:08.883Z,0.0000
2023-05-16T00:23:10.632Z,0.0000
2023-05-16T00:24:12.531Z,0.0000
2023-05-16T00:25:14.628Z,0.0000
2023-05-16T00:26:16.410Z,0.0000
2023-05-16T00:27:19.069Z,0.0000
2023-05-16T00:28:20.385Z,0.0000
2023-05-16T00:29:21.541Z,0.0000
2023-05-16T00:30:24.155Z,0.0000
2023-05-16T00:31:24.722Z,0.0000
2023-05-16T00:32:25.971Z,0.0000
2023-05-16T00:33:27.052Z,0.0000
2023-05-16T00:34:27.440Z,0.0000
2023-05-16T00:35:28.736Z,0.0000
2023-05-16T00:36:30.777Z,0.0000
2023-05-16T00:37:32.800Z,0.0000
2023-05-16T00:38:33.847Z,0.0000
2023-05-16T00:42:36.500Z,0.0000
2023-05-16T00:43:38.800Z,0.0000
2023-05-16T00:44:40.346Z,0.0000
2023-05-16T00:45:41.025Z,0.0000
2023-05-16T00:50:47.059Z,0.0000
2023-05-16T00:51:47.492Z,0.0000
2023-05-16T00:52:47.608Z,0.0000
2023-05-16T00:53:49.698Z,0.0000
2023-05-16T00:54:51.076Z,0.0000
2023-05-16T00:55:52.477Z,0.0000
2023-05-16T00:56:52.601Z,0.0000
2023-05-16T00:57:54.049Z,0.0000
2023-05-16T00:58:55.113Z,0.0000
2023-05-16T00:59:56.473Z,0.0000
2023-05-16T01:00:56.704Z,0.0000
2023-05-16T01:01:58.068Z,0.0000
2023-05-16T01:02:59.668Z,0.0000
2023-05-16T01:04:01.695Z,0.0000
2023-05-16T01:05:03.035Z,0.0000
2023-05-16T01:06:04.139Z,0.0000
2023-05-16T01:07:06.683Z,0.0000
2023-05-16T01:08:07.305Z,0.0000
2023-05-16T01:16:15.065Z,0.0000
2023-05-16T01:17:16.587Z,0.0000
2023-05-16T01:24:24.370Z,0.0000
2023-05-16T01:25:25.907Z,0.0000
2023-05-16T01:26:26.151Z,0.0000
2023-05-16T01:27:27.437Z,0.0000
2023-05-16T01:30:31.238Z,0.0000
2023-05-16T01:31:31.530Z,0.0000
2023-05-16T01:33:34.681Z,0.0000
2023-05-16T01:34:37.007Z,0.0000
2023-05-16T01:35:38.025Z,0.0000
2023-05-16T01:36:38.677Z,0.0000
2023-05-16T01:37:40.225Z,0.0000
2023-05-16T01:38:41.867Z,0.0000
2023-05-16T01:40:45.149Z,0.0000
2023-05-16T01:41:46.496Z,0.0000
2023-05-16T01:42:47.900Z,0.0000
2023-05-16T01:43:50.444Z,0.0000
2023-05-16T01:44:50.606Z,0.0000
2023-05-16T01:45:51.825Z,0.0000
2023-05-16T01:46:52.692Z,0.0000
2023-05-16T01:47:53.931Z,0.0000
2023-05-16T01:48:55.726Z,0.0000
2023-05-16T01:49:55.895Z,0.0000
2023-05-16T01:51:56.662Z,0.0000
2023-05-16T01:52:59.542Z,0.0000
2023-05-16T01:53:59.665Z,0.0000
2023-05-16T01:55:00.188Z,0.0000
2023-05-16T01:56:00.771Z,0.0000
2023-05-16T02:01:04.852Z,0.0000
2023-05-16T02:04:06.963Z,0.0000
2023-05-16T02:11:12.874Z,0.0000
2023-05-16T02:12:13.584Z,0.0000
2023-05-16T02:13:14.455Z,0.0000
2023-05-16T02:14:16.687Z,0.0000
2023-05-16T02:15:18.086Z,0.0000
2023-05-16T02:16:19.624Z,0.0000
2023-05-16T02:17:20.141Z,0.0000
2023-05-16T02:18:22.099Z,0.0000
2023-05-16T02:19:23.660Z,0.0000
2023-05-16T02:21:24.151Z,0.0000
2023-05-16T02:22:26.376Z,0.0000
2023-05-16T02:23:28.183Z,0.0000
2023-05-16T02:24:29.188Z,0.0000
2023-05-16T02:25:29.504Z,0.0000
2023-05-16T02:26:30.473Z,0.0000
2023-05-16T02:27:32.034Z,0.0000
2023-05-16T02:35:36.200Z,0.0000
2023-05-16T02:36:36.810Z,0.0000
2023-05-16T02:37:38.471Z,0.0000
2023-05-16T02:38:39.985Z,0.0000
2023-05-16T02:39:40.899Z,0.0000
2023-05-16T02:40:42.889Z,0.0000
2023-05-16T02:42:44.900Z,0.0000
2023-05-16T02:43:47.177Z,0.0000
2023-05-16T02:44:46.485Z,0.0000
2023-05-16T02:45:48.639Z,0.0000
2023-05-16T02:46:49.132Z,0.0000
2023-05-16T02:47:49.834Z,0.0000
2023-05-16T02:48:50.383Z,0.0000
2023-05-16T02:49:51.328Z,0.0000
2023-05-16T02:50:52.614Z,0.0000
2023-05-16T02:51:53.994Z,0.0000
2023-05-16T02:52:54.478Z,0.0000
2023-05-16T02:53:56.396Z,0.0000
2023-05-16T02:55:09.780Z,0.0000
2023-05-16T02:55:58.242Z,0.0000
2023-05-16T02:56:59.988Z,0.0000
2023-05-16T02:58:00.339Z,0.0000
2023-05-16T02:59:01.380Z,0.0000
2023-05-16T03:07:09.807Z,0.0000
2023-05-16T03:08:10.357Z,0.0000
2023-05-16T03:09:12.064Z,0.0000
2023-05-16T03:10:13.578Z,0.0000
2023-05-16T03:11:15.074Z,0.0000
2023-05-16T03:12:15.860Z,0.0000
2023-05-16T03:13:18.505Z,0.0000
2023-05-16T03:14:19.477Z,0.0000
2023-05-16T03:15:21.928Z,0.0000
2023-05-16T03:16:23.531Z,0.0000
2023-05-16T03:17:25.077Z,0.0000
2023-05-16T03:18:28.017Z,0.0000
2023-05-16T03:21:31.208Z,0.0000
2023-05-16T03:24:34.466Z,0.0000
2023-05-16T03:25:35.356Z,0.0000
2023-05-16T03:27:39.530Z,0.0000
2023-05-16T03:28:41.133Z,0.0000
2023-05-16T03:29:41.251Z,0.0000
2023-05-16T03:30:42.751Z,0.0000
2023-05-16T03:31:43.652Z,0.0000
2023-05-16T03:32:44.319Z,0.0000
2023-05-16T03:33:47.145Z,0.0000
2023-05-16T03:35:47.693Z,0.0000
2023-05-16T03:36:48.800Z,0.0000
2023-05-16T03:37:48.952Z,0.0000
2023-05-16T03:38:49.929Z,0.0000
2023-05-16T03:49:58.060Z,5.6250
2023-05-16T03:50:59.743Z,5.6250
2023-05-16T03:52:01.200Z,5.6250
2023-05-16T03:53:01.959Z,5.6250
2023-05-16T03:54:03.703Z,5.6250
2023-05-16T03:57:04.774Z,11.2500
2023-05-16T03:58:05.464Z,11.2500
2023-05-16T03:59:08.069Z,11.2500
2023-05-16T04:00:08.814Z,12.1500
2023-05-16T04:01:09.998Z,16.8750
2023-05-16T04:02:12.309Z,17.0833
2023-05-16T04:03:12.317Z,22.5000
2023-05-16T04:04:14.317Z,25.4167
2023-05-16T04:05:16.263Z,28.1250
2023-05-16T04:06:18.980Z,32.9167
2023-05-16T04:07:19.625Z,33.7500
2023-05-16T04:08:21.040Z,33.7500
2023-05-16T04:09:23.729Z,33.7500
2023-05-16T04:10:24.372Z,33.7500
2023-05-16T04:13:28.212Z,39.3750
2023-05-16T04:14:29.169Z,39.3750
2023-05-16T04:15:29.361Z,39.3750
2023-05-16T04:16:31.307Z,39.3750
2023-05-16T04:17:31.801Z,39.3750
2023-05-16T04:18:33.180Z,33.7500
2023-05-16T04:19:33.548Z,33.7500
2023-05-16T04:20:33.607Z,34.6500
2023-05-16T04:21:35.722Z,39.3750
2023-05-16T04:22:36.416Z,42.9750
2023-05-16T04:23:37.162Z,45.0000
2023-05-16T04:24:37.609Z,44.5673
2023-05-16T04:29:42.023Z,51.5250
2023-05-16T04:35:46.637Z,79.2000
2023-05-16T04:37:47.991Z,89.7656
2023-05-16T04:38:49.230Z,96.2740
2023-05-16T04:39:50.509Z,101.6827
2023-05-16T04:40:52.369Z,106.8750
2023-05-16T04:41:54.134Z,111.4183
2023-05-16T04:42:56.077Z,121.5000
2023-05-16T04:43:56.392Z,130.6731
2023-05-16T04:44:57.745Z,136.0817
2023-05-16T04:48:00.136Z,149.7656
2023-05-16T04:54:07.368Z,191.2500
2023-05-16T04:55:07.552Z,186.0577
2023-05-16T04:58:09.058Z,198.6058
2023-05-16T04:59:09.289Z,202.5000
2023-05-16T05:00:09.849Z,202.5000
2023-05-16T05:01:10.790Z,207.4219
2023-05-16T05:02:12.263Z,208.1250
2023-05-16T05:03:12.600Z,208.1250
2023-05-16T05:04:15.195Z,208.1250
2023-05-16T05:05:16.333Z,205.5288
2023-05-16T05:06:16.441Z,202.5000
2023-05-16T05:07:18.240Z,201.6667
2023-05-16T05:08:20.448Z,195.0000
2023-05-16T05:09:21.234Z,190.3846
2023-05-16T05:11:22.431Z,185.6250
2023-05-16T05:12:23.928Z,180.2250
2023-05-16T05:13:25.403Z,180.0000
2023-05-16T05:18:31.914Z,197.2917
2023-05-16T05:19:32.052Z,207.0000
2023-05-16T05:20:33.628Z,227.9250
2023-05-16T05:21:34.571Z,252.6562
2023-05-16T05:22:36.282Z,271.0817
2023-05-16T05:23:37.531Z,280.1683
2023-05-16T05:24:39.019Z,279.3029
2023-05-16T05:25:40.185Z,272.3798
2023-05-16T05:26:41.942Z,263.0769
2023-05-16T05:27:43.865Z,253.5750
2023-05-16T05:28:53.914Z,255.1500
2023-05-16T05:29:46.850Z,263.3036
2023-05-16T05:30:49.081Z,269.1346
2023-05-16T05:31:49.525Z,270.0000
2023-05-16T05:32:52.402Z,270.0000
2023-05-16T05:33:54.484Z,270.6750
2023-05-16T05:34:54.996Z,278.0048
2023-05-16T05:35:55.799Z,290.5529
2023-05-16T05:42:00.380Z,368.0048
2023-05-16T05:44:02.082Z,378.3894
2023-05-16T05:45:02.638Z,383.7228
2023-05-16T05:46:03.467Z,388.3594
2023-05-16T05:47:05.344Z,388.1250
2023-05-16T05:49:05.523Z,388.1250
2023-05-16T05:50:06.728Z,386.2500
2023-05-16T05:51:08.585Z,381.2019
2023-05-16T05:52:08.841Z,380.7692
2023-05-16T05:53:11.076Z,387.6923
2023-05-16T05:54:13.315Z,396.3462
2023-05-16T05:55:13.611Z,399.3750
2023-05-16T05:56:14.154Z,384.6635
2023-05-16T05:57:14.904Z,346.1538
2023-05-16T05:58:17.884Z,316.1250
2023-05-16T05:59:19.512Z,310.5000
2023-05-16T06:00:20.753Z,319.1576
2023-05-16T06:01:21.133Z,333.8315
2023-05-16T06:02:22.661Z,337.7250
2023-05-16T06:03:24.877Z,333.9000
2023-05-16T06:04:25.322Z,318.4239
2023-05-16T06:05:26.289Z,299.9250
2023-05-16T06:06:28.411Z,300.3750
2023-05-16T06:07:29.496Z,295.3125
2023-05-16T06:17:37.026Z,217.8000
2023-05-16T06:18:37.552Z,208.3413
2023-05-16T06:19:38.370Z,212.6250
2023-05-16T06:20:40.335Z,223.1250
2023-05-16T06:21:41.894Z,218.9423
2023-05-16T06:22:42.014Z,208.1250
2023-05-16T06:23:42.336Z,218.0769
2023-05-16T06:24:43.702Z,233.5500
2023-05-16T06:25:45.106Z,231.0750
2023-05-16T06:26:46.266Z,223.7772
2023-05-16T06:27:48.380Z,209.4231
2023-05-16T06:28:49.901Z,191.2500
2023-05-16T06:29:51.836Z,176.3221
2023-05-16T06:30:52.766Z,177.3000
2023-05-16T06:31:55.102Z,190.0000
2023-05-16T06:32:57.165Z,204.6094
2023-05-16T06:33:59.161Z,231.7969
2023-05-16T06:34:59.221Z,269.7554
2023-05-16T06:35:59.462Z,294.9456
2023-05-16T06:37:01.352Z,301.0500
2023-05-16T06:38:01.571Z,300.4688
2023-05-16T06:39:03.231Z,292.9688
2023-05-16T06:40:04.999Z,292.5000
2023-05-16T06:41:05.331Z,304.4531
2023-05-16T06:42:07.446Z,314.0625
2023-05-16T06:43:09.358Z,328.8462
2023-05-16T06:44:10.983Z,351.3462
2023-05-16T06:45:12.820Z,359.7554
2023-05-16T06:46:12.946Z,346.0598
2023-05-16T06:47:14.330Z,327.6562
2023-05-16T06:48:15.418Z,319.6467
2023-05-16T06:49:15.570Z,300.3261
2023-05-16T06:50:17.184Z,290.4750
2023-05-16T06:51:18.122Z,285.3606
2023-05-16T06:52:19.980Z,273.7500
2023-05-16T06:53:20.063Z,258.9750
2023-05-16T06:54:22.546Z,247.9688
2023-05-16T06:56:24.598Z,250.2000
2023-05-16T06:57:25.343Z,279.7826
2023-05-16T06:58:26.883Z,312.1875
2023-05-16T07:07:34.233Z,248.5817
2023-05-16T07:09:36.673Z,263.2933
2023-05-16T07:15:41.785Z,439.8317
2023-05-16T07:17:43.801Z,551.2500
2023-05-16T07:18:45.572Z,531.9952
2023-05-16T07:20:47.503Z,537.1875
2023-05-16T07:21:48.833Z,552.7644
2023-05-16T07:22:50.349Z,554.2969
2023-05-16T07:23:51.325Z,601.6586
2023-05-16T07:24:53.246Z,655.6793
2023-05-16T07:28:57.671Z,483.7500
2023-05-16T07:29:59.684Z,427.5000
2023-05-16T07:31:02.280Z,412.0312
2023-05-16T07:32:03.181Z,420.5250
2023-05-16T07:33:03.826Z,418.2750
2023-05-16T07:34:04.543Z,408.6779
2023-05-16T07:35:04.757Z,407.3798
2023-05-16T07:36:16.205Z,393.7500
2023-05-16T07:37:08.904Z,383.7784
2023-05-16T07:38:10.283Z,370.5469
2023-05-16T07:39:11.780Z,374.7656
2023-05-16T07:40:13.552Z,401.0156
2023-05-16T07:41:14.820Z,415.3846
2023-05-16T07:42:15.841Z,446.5385
2023-05-16T07:43:17.632Z,476.4583
2023-05-16T07:44:19.846Z,513.1250
2023-05-16T07:45:21.346Z,570.0000
2023-05-16T07:53:28.372Z,1537.5000
2023-05-16T07:54:29.735Z,1353.7500
2023-05-16T07:55:29.889Z,1289.0625
2023-05-16T07:56:31.968Z,1337.6250
2023-05-16T07:57:33.595Z,1270.8173
2023-05-16T07:58:33.895Z,1204.4250
2023-05-16T07:59:34.553Z,1158.7500
2023-05-16T08:00:36.322Z,1087.1394
2023-05-16T08:02:35.979Z,915.8967
2023-05-16T08:03:37.517Z,911.6827
2023-05-16T08:04:39.057Z,913.1971
2023-05-16T08:05:41.984Z,880.6250
2023-05-16T08:06:42.415Z,815.1750
2023-05-16T08:07:43.734Z,739.2548
2023-05-16T08:08:45.413Z,720.4500
2023-05-16T08:09:47.673Z,719.7750
2023-05-16T08:10:49.419Z,736.4423
2023-05-16T08:11:49.455Z,757.5750
2023-05-16T08:12:50.651Z,748.3414
2023-05-16T08:13:51.816Z,713.9423
2023-05-16T08:16:55.213Z,853.4856
2023-05-16T08:17:55.710Z,877.7164
2023-05-16T08:19:58.071Z,875.2989
2023-05-16T08:20:59.841Z,861.3587
2023-05-16T08:22:00.992Z,816.9231
2023-05-16T08:23:01.569Z,791.9022
2023-05-16T08:24:02.066Z,809.3510
2023-05-16T08:25:02.133Z,838.7740
2023-05-16T08:26:03.267Z,795.2344
2023-05-16T08:27:04.369Z,732.5481
2023-05-16T08:28:05.925Z,719.1346
2023-05-16T08:29:07.371Z,692.5240
2023-05-16T08:30:08.958Z,665.9135
2023-05-16T08:32:09.928Z,592.4250
2023-05-16T08:34:10.877Z,647.3641
2023-05-16T08:35:11.174Z,656.7750
2023-05-16T08:37:12.308Z,584.3510
2023-05-16T08:42:14.975Z,548.2211
2023-05-16T08:43:15.821Z,606.6000
2023-05-16T08:46:19.077Z,609.5250
2023-05-16T08:47:19.715Z,662.0380
2023-05-16T08:48:21.357Z,737.0914
2023-05-16T08:49:23.118Z,738.3333
2023-05-16T08:50:23.370Z,712.4279
2023-05-16T08:51:25.293Z,683.6539
2023-05-16T08:52:25.908Z,660.3750
2023-05-16T08:53:28.151Z,657.2917
2023-05-16T08:54:29.524Z,662.2356
2023-05-16T08:55:31.404Z,670.9500
2023-05-16T08:56:31.790Z,683.1000
2023-05-16T08:57:31.817Z,716.4844
2023-05-16T08:58:32.112Z,835.6793
2023-05-16T08:59:32.295Z,1034.3510
2023-05-16T09:00:34.255Z,1246.5865
2023-05-16T09:01:36.943Z,1316.2500
2023-05-16T09:02:37.683Z,1259.1346
2023-05-16T09:03:38.780Z,1089.3029
2023-05-16T09:04:39.835Z,876.2019
2023-05-16T09:05:41.610Z,705.0815
2023-05-16T09:06:42.654Z,613.3414
2023-05-16T09:07:43.417Z,570.0721
2023-05-16T09:08:45.114Z,537.2917
2023-05-16T09:09:47.575Z,519.7917
2023-05-16T09:10:49.688Z,530.7750
2023-05-16T09:11:50.757Z,572.2826
2023-05-16T09:12:52.901Z,712.1250
2023-05-16T09:13:53.824Z,883.8000
2023-05-16T09:15:54.878Z,906.3000
2023-05-16T09:16:55.752Z,870.0000
2023-05-16T09:17:55.969Z,882.4760
2023-05-16T09:18:57.763Z,896.0156
2023-05-16T09:19:57.912Z,847.6442
2023-05-16T09:20:58.958Z,798.2812
2023-05-16T09:22:00.616Z,779.3750
2023-05-16T09:23:01.142Z,827.5240
2023-05-16T09:24:02.958Z,837.2917
2023-05-16T09:25:04.778Z,797.0192
2023-05-16T09:26:05.023Z,727.0924
2023-05-16T09:43:24.066Z,224.5500
2023-05-16T09:44:25.774Z,239.3750
2023-05-16T09:45:26.527Z,257.5781
2023-05-16T09:46:27.657Z,274.4022
2023-05-16T09:47:28.204Z,271.7119
2023-05-16T09:48:28.467Z,259.2000
2023-05-16T09:49:30.299Z,272.1094
2023-05-16T09:50:32.176Z,278.1250
2023-05-16T09:51:32.485Z,278.2212
2023-05-16T09:52:34.235Z,279.3750
2023-05-16T09:53:35.914Z,287.1000
2023-05-16T09:54:36.791Z,298.7740
2023-05-16T09:55:37.812Z,309.3750
2023-05-16T09:56:38.255Z,311.3315
2023-05-16T09:57:40.463Z,306.0000
2023-05-16T09:58:41.748Z,302.0192
2023-05-16T10:07:57.492Z,299.3478
2023-05-16T10:08:57.597Z,336.4286
2023-05-16T10:09:59.674Z,385.0000
2023-05-16T10:11:02.123Z,436.6406
2023-05-16T10:14:06.000Z,485.6971
2023-05-16T10:15:04.152Z,492.0652
2023-05-16T10:17:06.594Z,462.1875
2023-05-16T10:18:08.686Z,475.7812
2023-05-16T10:23:13.560Z,541.8000
2023-05-16T10:25:15.389Z,543.9844
2023-05-16T10:26:16.558Z,540.2446
2023-05-16T10:27:19.103Z,516.2772
2023-05-16T10:28:17.326Z,492.3214
2023-05-16T10:30:22.126Z,484.4250
2023-05-16T10:33:23.462Z,466.6304
2023-05-16T10:34:24.837Z,446.7188
2023-05-16T10:35:27.677Z,431.4844
2023-05-16T10:36:27.633Z,420.8967
2023-05-16T10:37:29.880Z,361.4062
2023-05-16T10:38:31.948Z,283.2750
2023-05-16T10:39:32.762Z,218.9250
2023-05-16T10:40:33.434Z,163.5750
2023-05-16T10:41:34.044Z,119.1033
2023-05-16T10:43:35.305Z,71.3942
2023-05-16T10:44:37.473Z,67.5000
2023-05-16T10:45:39.050Z,76.7250
2023-05-16T10:54:47.883Z,111.5217
2023-05-16T10:55:48.201Z,112.5000
2023-05-16T10:56:49.298Z,125.3906
2023-05-16T10:57:50.111Z,161.3942
2023-05-16T10:58:52.068Z,260.0481
2023-05-16T10:59:53.385Z,398.9423
2023-05-16T11:00:53.471Z,450.4891
2023-05-16T11:01:55.601Z,465.7031
2023-05-16T11:02:57.945Z,531.7969
2023-05-16T11:07:29.795Z,615.0815
2023-05-16T11:08:30.218Z,589.1576
2023-05-16T11:09:32.064Z,470.6250
2023-05-16T11:10:33.779Z,362.9167
2023-05-16T11:11:34.896Z,334.9038
2023-05-16T11:12:37.084Z,369.0865
2023-05-16T11:13:39.235Z,374.8500
2023-05-16T11:14:40.037Z,402.1875
2023-05-16T11:15:41.924Z,434.8558
2023-05-16T11:16:43.499Z,410.6250
2023-05-16T11:17:46.096Z,359.2663
2023-05-16T11:18:46.059Z,288.7500
2023-05-16T11:19:47.949Z,312.1875
2023-05-16T11:20:50.072Z,356.0156
2023-05-16T11:21:52.066Z,360.6490
2023-05-16T11:22:52.367Z,457.4250
2023-05-16T11:23:53.118Z,440.6971
2023-05-16T11:24:54.869Z,356.9531
2023-05-16T11:25:55.206Z,246.2019
2023-05-16T11:26:57.422Z,156.8510
2023-05-16T11:27:59.324Z,106.4583
2023-05-16T11:28:59.717Z,81.4402
2023-05-16T11:30:02.065Z,78.7500
2023-05-16T11:31:01.763Z,73.3500
2023-05-16T11:32:02.639Z,59.9279
2023-05-16T11:33:03.409Z,51.2740
2023-05-16T11:34:04.027Z,50.6250
2023-05-16T11:35:04.825Z,60.5769
2023-05-16T11:36:14.519Z,76.3702
2023-05-16T11:37:08.083Z,82.1739
2023-05-16T11:38:10.206Z,116.7750
2023-05-16T11:39:11.530Z,228.6779
2023-05-16T11:40:13.009Z,338.1490
2023-05-16T11:41:14.538Z,435.6000
2023-05-16T11:42:14.631Z,483.9663
2023-05-16T11:43:16.489Z,471.7969
2023-05-16T11:44:17.212Z,384.8798
2023-05-16T11:45:18.874Z,284.2969
2023-05-16T11:47:22.805Z,277.7344
2023-05-16T11:48:35.825Z,266.1750
2023-05-16T11:49:26.535Z,260.3906
2023-05-16T11:50:28.786Z,238.3333
2023-05-16T11:51:30.239Z,193.6298
2023-05-16T11:52:30.702Z,185.6250
2023-05-16T11:53:30.834Z,195.7933
2023-05-16T11:55:41.946Z,186.0577
2023-05-16T11:56:35.072Z,177.4219
2023-05-16T11:57:36.702Z,173.9062
2023-05-16T11:58:38.476Z,182.5000
2023-05-16T11:59:40.027Z,201.7969
2023-05-16T12:00:40.094Z,196.8750
2023-05-16T12:01:42.023Z,229.2188
2023-05-16T12:02:44.012Z,302.7083
2023-05-16T12:04:47.871Z,310.0000
2023-05-16T12:05:48.666Z,320.3906
2023-05-16T12:06:50.421Z,303.3173
2023-05-16T12:07:51.640Z,302.8500
2023-05-16T12:08:53.608Z,300.4167
2023-05-16T12:09:55.794Z,263.5417
2023-05-16T12:10:57.897Z,241.2000
2023-05-16T12:11:58.134Z,237.7174
2023-05-16T12:12:59.638Z,254.5312
2023-05-16T12:14:00.998Z,257.3438
2023-05-16T12:15:02.634Z,272.5781
2023-05-16T12:17:05.101Z,522.8804
2023-05-16T12:18:06.772Z,525.2885
2023-05-16T12:19:08.947Z,454.0500
2023-05-16T12:20:08.990Z,534.6000
2023-05-16T12:21:11.058Z,665.6250
2023-05-16T12:22:12.421Z,625.7812
2023-05-16T12:23:14.359Z,528.5417
2023-05-16T12:24:15.406Z,415.0272
2023-05-16T12:25:16.158Z,421.3393
2023-05-16T12:26:16.650Z,441.6848
2023-05-16T12:27:16.945Z,375.1631
2023-05-16T12:28:16.982Z,378.5156
2023-05-16T12:29:18.001Z,423.5156
2023-05-16T12:30:20.226Z,357.0833
2023-05-16T12:31:31.125Z,273.6685
2023-05-16T12:32:22.051Z,236.5179
2023-05-16T12:33:22.795Z,231.4904
2023-05-16T12:34:24.683Z,265.4567
2023-05-16T12:35:25.912Z,268.3594
2023-05-16T12:36:27.060Z,316.0817
2023-05-16T12:37:28.521Z,325.5469
2023-05-16T12:38:30.741Z,278.8702
2023-05-16T12:39:34.391Z,274.5433
2023-05-16T12:40:32.557Z,293.4000
2023-05-16T12:41:33.451Z,299.2067
2023-05-16T12:42:35.473Z,315.0000
2023-05-16T12:43:35.654Z,335.7692
2023-05-16T12:44:36.438Z,329.2969
2023-05-16T12:45:37.954Z,322.0312
2023-05-16T12:46:39.148Z,330.4688
2023-05-16T12:47:40.883Z,332.2917
2023-05-16T12:48:42.329Z,337.5000
2023-05-16T12:49:44.185Z,340.8333
2023-05-16T12:50:45.931Z,357.7083
2023-05-16T12:51:48.090Z,379.3750
2023-05-16T12:52:49.995Z,378.0469
2023-05-16T12:54:08.616Z,333.2812
2023-05-16T12:54:53.531Z,284.1848
2023-05-16T12:55:55.702Z,258.7500
2023-05-16T12:56:56.585Z,255.0721
2023-05-16T12:57:58.889Z,269.5833
2023-05-16T12:59:00.213Z,279.8438
2023-05-16T13:00:02.293Z,260.1562
2023-05-16T13:02:02.507Z,236.2500
2023-05-16T13:03:03.834Z,236.2500
2023-05-16T13:04:06.285Z,235.8173
2023-05-16T13:05:06.129Z,236.2500
2023-05-16T13:06:08.169Z,231.8750
2023-05-16T13:07:08.301Z,226.0817
2023-05-16T13:08:09.573Z,233.3250
2023-05-16T13:09:10.308Z,255.3261
2023-05-16T13:10:12.289Z,290.8333
2023-05-16T13:11:13.466Z,326.2500
2023-05-16T13:14:17.650Z,271.0817
2023-05-16T13:15:18.192Z,249.3000
2023-05-16T13:16:19.532Z,231.2740
2023-05-16T13:17:19.560Z,219.6094
2023-05-16T13:19:21.971Z,238.4135
2023-05-16T13:20:22.753Z,255.3750
2023-05-16T13:22:24.378Z,292.5000
2023-05-16T13:23:26.088Z,301.4062
2023-05-16T13:24:28.312Z,320.8500
2023-05-16T13:25:30.439Z,336.7969
2023-05-16T13:26:31.009Z,354.1406
2023-05-16T13:27:31.089Z,355.2404
2023-05-16T13:28:32.938Z,378.8221
2023-05-16T13:29:34.908Z,441.3281
2023-05-16T13:30:36.938Z,476.9531
2023-05-16T13:31:37.640Z,468.0000
2023-05-16T13:32:39.792Z,467.5000
2023-05-16T13:33:40.127Z,506.9837
2023-05-16T13:34:42.149Z,536.8750
2023-05-16T13:35:43.635Z,568.7740
2023-05-16T13:36:53.779Z,629.7750
2023-05-16T13:47:25.406Z,474.0750
2023-05-16T13:48:27.278Z,432.4760
2023-05-16T13:49:28.896Z,381.0938
2023-05-16T13:50:33.363Z,356.9712
2023-05-16T13:51:29.155Z,379.5652
2023-05-16T13:52:31.237Z,358.1250
2023-05-16T13:53:33.127Z,303.1010
2023-05-16T13:54:33.553Z,267.3000
2023-05-16T13:55:34.727Z,270.0000
2023-05-16T13:56:36.128Z,327.4219
2023-05-16T13:57:38.241Z,386.5500
2023-05-16T14:00:05.739Z,441.4286
2023-05-16T14:00:45.176Z,483.7500
2023-05-16T14:01:41.856Z,518.9674
2023-05-16T14:02:42.276Z,549.3029
2023-05-16T14:03:43.446Z,562.7164
2023-05-16T14:04:46.759Z,543.7500
2023-05-16T14:05:47.374Z,463.5511
2023-05-16T14:06:47.907Z,392.1750
2023-05-16T14:07:49.015Z,357.1875
2023-05-16T14:08:50.163Z,363.1500
2023-05-16T14:09:51.015Z,374.2788
2023-05-16T14:10:53.011Z,409.5833
2023-05-16T14:11:53.794Z,465.0750
2023-05-16T14:12:54.971Z,509.7656
2023-05-16T14:13:56.314Z,565.5289
2023-05-16T14:14:57.368Z,569.2067
2023-05-16T14:15:58.713Z,491.9531
2023-05-16T14:18:00.942Z,382.9327
2023-05-16T14:19:03.198Z,365.6250
2023-05-16T14:20:03.188Z,391.3044
2023-05-16T14:21:04.864Z,415.5469
2023-05-16T14:22:05.308Z,476.0156
2023-05-16T14:23:07.142Z,468.0469
2023-05-16T14:26:12.057Z,501.3281
2023-05-16T14:27:12.313Z,482.4519
2023-05-16T14:28:13.932Z,461.4844
2023-05-16T14:29:15.466Z,459.7356
2023-05-16T14:30:16.888Z,468.6058
2023-05-16T14:31:18.945Z,473.7981
2023-05-16T14:32:19.069Z,447.7989
2023-05-16T14:34:21.310Z,424.3206
2023-05-16T14:35:21.462Z,406.2228
2023-05-16T14:36:22.007Z,364.8913
2023-05-16T14:37:22.782Z,373.8462
2023-05-16T14:38:24.816Z,378.3333
2023-05-16T14:39:26.550Z,388.3500
2023-05-16T14:40:28.292Z,403.9583
2023-05-16T14:41:28.969Z,409.2188
2023-05-16T14:42:29.286Z,426.3750
2023-05-16T14:43:30.656Z,492.9750
2023-05-16T14:44:30.993Z,509.7115
2023-05-16T14:45:32.924Z,437.3438
2023-05-16T14:46:34.797Z,343.8281
2023-05-16T14:47:35.193Z,283.2065
2023-05-16T14:48:35.661Z,242.1196
2023-05-16T14:49:36.111Z,222.6202
2023-05-16T14:50:38.156Z,215.9135
2023-05-16T14:51:39.549Z,220.8894
2023-05-16T14:52:41.645Z,244.9038
2023-05-16T14:53:43.322Z,285.7500
2023-05-16T14:54:43.199Z,291.9886
2023-05-16T14:55:43.486Z,274.2188
2023-05-16T14:58:47.525Z,276.7067
2023-05-16T14:59:47.887Z,295.9239
2023-05-16T15:00:49.431Z,310.2404
2023-05-16T15:01:51.333Z,316.8750
2023-05-16T15:02:52.474Z,294.8798
2023-05-16T15:04:56.460Z,289.2548
2023-05-16T15:05:58.157Z,288.6058
2023-05-16T15:06:58.821Z,303.5054
2023-05-16T15:07:58.897Z,307.8606
2023-05-16T15:08:59.734Z,290.0544
2023-05-16T15:09:59.752Z,266.5761
2023-05-16T15:10:59.802Z,252.8804
2023-05-16T15:12:01.847Z,240.4688
2023-05-16T15:13:03.794Z,232.7344
2023-05-16T15:14:05.686Z,220.5469
2023-05-16T15:15:05.948Z,219.6196
2023-05-16T15:16:07.921Z,203.2031
2023-05-16T15:17:09.834Z,210.2344
2023-05-16T15:18:10.284Z,226.2228
2023-05-16T15:19:10.861Z,246.8510
2023-05-16T15:20:11.177Z,258.7500
2023-05-16T15:21:13.143Z,295.6250
2023-05-16T15:22:13.822Z,359.5673
2023-05-16T15:23:14.953Z,399.1406
2023-05-16T15:24:15.836Z,384.2308
2023-05-16T15:25:16.397Z,401.9712
2023-05-16T15:26:16.750Z,496.3500
2023-05-16T15:27:16.824Z,515.8594
2023-05-16T15:28:18.737Z,463.7250
2023-05-16T15:29:18.252Z,443.8636
2023-05-16T15:30:19.697Z,474.6094
2023-05-16T15:31:21.249Z,467.1094
2023-05-16T15:32:22.465Z,369.3750
2023-05-16T15:33:22.657Z,262.6442
2023-05-16T15:34:24.188Z,231.7969
2023-05-16T15:35:25.730Z,240.5769
2023-05-16T15:36:27.629Z,235.5750
2023-05-16T15:37:28.534Z,227.1635
2023-05-16T15:38:30.258Z,233.2212
2023-05-16T15:39:32.373Z,267.1875
2023-05-16T15:40:32.841Z,271.0817
2023-05-16T15:42:35.955Z,250.5682
2023-05-16T15:44:37.020Z,325.3500
2023-05-16T15:45:39.871Z,393.9844
2023-05-16T15:46:38.308Z,457.4250
2023-05-16T15:47:40.094Z,474.6094
2023-05-16T15:48:41.337Z,528.7500
2023-05-16T15:49:42.528Z,493.3594
2023-05-16T15:51:45.504Z,355.0781
2023-05-16T15:52:45.932Z,337.7163
2023-05-16T15:53:45.997Z,346.1719
2023-05-16T15:54:47.656Z,366.9231
2023-05-16T15:55:47.929Z,367.3558
2023-05-16T15:56:49.250Z,378.9844
2023-05-16T15:59:52.831Z,358.7019
2023-05-16T16:00:54.599Z,352.2917
2023-05-16T16:01:54.727Z,335.3365
2023-05-16T16:02:56.882Z,283.5417
2023-05-16T16:03:57.307Z,249.7500
2023-05-16T16:04:59.081Z,251.8269
2023-05-16T16:06:00.378Z,256.4062
2023-05-16T16:07:02.052Z,239.5312
2023-05-16T16:08:03.231Z,232.5000
2023-05-16T16:09:05.212Z,246.8250
2023-05-16T16:10:06.314Z,258.0469